Time;durP1;ratioP1;P1;durP2;ratioP2;P2;SDS_P1;SDS_P2;PMS_P1;PMS_P2;Temp;Humidity;BMP_temperature;BMP_pressure;BME280_temperature;BME280_humidity;BME280_pressure;Samples;Min_cycle;Max_cycle;Signal;HPM_P1;HPM_P2
2023/03/05 00:01:59;;;;;;;39.75;18.13;;;;;;;;;;5054658;28;20092;-77
2023/03/05 00:04:26;;;;;;;42.42;18.63;;;;;;;;;;5055831;28;20045;-78
2023/03/05 00:06:54;;;;;;;44.40;19.25;;;;;;;;;;5042410;28;20161;-78
2023/03/05 00:09:23;;;;;;;49.47;20.55;;;;;;;;;;5038212;28;20049;-78
2023/03/05 00:11:50;;;;;;;48.67;19.92;;;;;;;;;;5036541;28;20454;-79
2023/03/05 00:14:16;;;;;;;45.85;19.88;;;;;;;;;;5049442;28;20099;-77
2023/03/05 00:16:43;;;;;;;45.47;18.52;;;;;;;;;;5055731;28;20107;-78
2023/03/05 00:19:10;;;;;;;44.70;19.02;;;;;;;;;;5049531;28;20061;-78
2023/03/05 00:21:39;;;;;;;49.72;19.98;;;;;;;;;;5036663;28;20057;-79
2023/03/05 00:24:08;;;;;;;44.83;18.33;;;;;;;;;;5046225;28;20045;-79
2023/03/05 00:26:38;;;;;;;48.08;19.60;;;;;;;;;;5035026;28;20462;-78
2023/03/05 00:29:06;;;;;;;43.22;18.48;;;;;;;;;;5044277;28;20056;-79
2023/03/05 00:31:37;;;;;;;49.80;20.92;;;;;;;;;;5039281;28;20049;-79
2023/03/05 00:34:06;;;;;;;47.05;19.27;;;;;;;;;;5048373;28;20076;-78
2023/03/05 00:36:33;;;;;;;46.88;18.92;;;;;;;;;;5038801;28;20099;-78
2023/03/05 00:39:00;;;;;;;42.35;17.48;;;;;;;;;;5038657;28;20307;-78
2023/03/05 00:41:27;;;;;;;44.17;19.33;;;;;;;;;;5042837;28;20055;-78
2023/03/05 00:43:55;;;;;;;43.85;19.02;;;;;;;;;;5044731;28;20109;-79
2023/03/05 00:46:21;;;;;;;51.92;21.33;;;;;;;;;;5043417;28;20088;-78
2023/03/05 00:48:48;;;;;;;47.20;18.23;;;;;;;;;;5040834;28;20088;-78
2023/03/05 00:51:15;;;;;;;46.42;19.27;;;;;;;;;;5042417;28;20061;-78
2023/03/05 00:53:42;;;;;;;46.83;18.10;;;;;;;;;;5044703;28;20040;-78
2023/03/05 00:56:08;;;;;;;46.97;19.38;;;;;;;;;;5060151;28;20045;-78
2023/03/05 00:58:35;;;;;;;46.00;19.27;;;;;;;;;;5059964;28;20067;-78
2023/03/05 01:01:04;;;;;;;46.65;19.13;;;;;;;;;;5056164;28;20132;-78
2023/03/05 01:03:32;;;;;;;48.50;19.58;;;;;;;;;;5054542;28;20131;-77
2023/03/05 01:06:00;;;;;;;50.95;20.75;;;;;;;;;;5041785;28;20048;-79
2023/03/05 01:08:27;;;;;;;50.03;19.40;;;;;;;;;;5043434;28;20068;-83
2023/03/05 01:10:54;;;;;;;48.67;19.40;;;;;;;;;;5074858;22;20114;-79
2023/03/05 01:13:21;;;;;;;47.88;18.58;;;;;;;;;;5077656;28;20123;-79
2023/03/05 01:15:49;;;;;;;53.05;20.63;;;;;;;;;;5078555;28;20140;-80
2023/03/05 01:18:18;;;;;;;50.55;20.67;;;;;;;;;;5082608;28;20514;-80
2023/03/05 01:20:45;;;;;;;46.72;19.92;;;;;;;;;;5092130;28;20075;-81
2023/03/05 01:23:12;;;;;;;45.97;18.75;;;;;;;;;;5102289;28;20431;-80
2023/03/05 01:25:38;;;;;;;42.42;18.40;;;;;;;;;;5101587;28;20039;-80
2023/03/05 01:28:05;;;;;;;52.92;21.17;;;;;;;;;;5100551;28;20079;-80
2023/03/05 01:30:32;;;;;;;45.75;19.77;;;;;;;;;;5101299;28;20127;-80
2023/03/05 01:32:59;;;;;;;49.90;19.88;;;;;;;;;;5099577;28;20047;-80
2023/03/05 01:35:27;;;;;;;47.42;20.40;;;;;;;;;;5099761;28;20059;-81
2023/03/05 01:37:54;;;;;;;48.88;19.85;;;;;;;;;;5100758;28;20079;-80
2023/03/05 01:40:25;;;;;;;45.08;20.05;;;;;;;;;;5100527;28;20122;-79
2023/03/05 01:42:58;;;;;;;51.35;20.05;;;;;;;;;;5098852;28;20510;-80
2023/03/05 01:45:25;;;;;;;48.65;19.42;;;;;;;;;;5098981;28;20068;-80
2023/03/05 01:47:51;;;;;;;50.13;20.35;;;;;;;;;;5098371;28;20044;-79
2023/03/05 01:50:22;;;;;;;52.45;20.67;;;;;;;;;;5098198;28;20052;-80
2023/03/05 01:52:57;;;;;;;45.40;18.25;;;;;;;;;;5097822;28;20052;-81
2023/03/05 01:55:26;;;;;;;53.20;20.08;;;;;;;;;;5097471;28;20131;-80
2023/03/05 01:57:55;;;;;;;48.22;18.55;;;;;;;;;;5097356;28;20087;-80
2023/03/05 02:00:26;;;;;;;52.25;20.33;;;;;;;;;;5099063;28;20075;-78
2023/03/05 02:02:53;;;;;;;50.15;20.00;;;;;;;;;;5098235;28;20131;-80
2023/03/05 02:05:25;;;;;;;51.17;19.65;;;;;;;;;;5077562;28;20123;-79
2023/03/05 02:07:54;;;;;;;50.00;19.42;;;;;;;;;;5097816;28;20094;-80
2023/03/05 02:10:23;;;;;;;50.45;19.83;;;;;;;;;;5109565;28;20055;-78
2023/03/05 02:12:51;;;;;;;49.72;20.38;;;;;;;;;;5118851;28;20032;-80
2023/03/05 02:15:19;;;;;;;53.45;20.02;;;;;;;;;;5118749;28;20067;-78
2023/03/05 02:17:46;;;;;;;45.83;19.75;;;;;;;;;;5116498;28;20047;-78
2023/03/05 02:20:15;;;;;;;48.47;22.10;;;;;;;;;;5104803;28;20522;-79
2023/03/05 02:22:43;;;;;;;50.72;20.15;;;;;;;;;;5102939;28;20063;-80
2023/03/05 02:25:14;;;;;;;48.00;21.73;;;;;;;;;;5100888;28;20044;-80
2023/03/05 02:27:44;;;;;;;55.45;22.70;;;;;;;;;;5100960;28;20044;-80
2023/03/05 02:30:12;;;;;;;50.05;20.02;;;;;;;;;;5099372;28;20139;-81
2023/03/05 02:32:39;;;;;;;50.38;20.23;;;;;;;;;;5098039;28;20104;-79
2023/03/05 02:35:06;;;;;;;51.60;20.10;;;;;;;;;;5097154;28;20589;-79
2023/03/05 02:37:33;;;;;;;46.10;20.40;;;;;;;;;;5098497;28;20138;-80
2023/03/05 02:40:01;;;;;;;48.42;21.38;;;;;;;;;;5097276;28;20075;-79
2023/03/05 02:42:29;;;;;;;54.03;20.70;;;;;;;;;;5096658;28;20126;-80
2023/03/05 02:44:56;;;;;;;54.13;21.02;;;;;;;;;;5096622;28;20044;-79
2023/03/05 02:47:22;;;;;;;51.92;21.13;;;;;;;;;;5097538;28;20048;-79
2023/03/05 02:49:49;;;;;;;50.30;20.45;;;;;;;;;;5097494;28;20048;-79
2023/03/05 02:52:16;;;;;;;48.53;19.60;;;;;;;;;;5100964;28;20044;-80
2023/03/05 02:54:42;;;;;;;51.45;21.15;;;;;;;;;;5111435;28;20497;-80
2023/03/05 02:57:10;;;;;;;59.05;23.67;;;;;;;;;;5096629;28;20215;-80
2023/03/05 02:59:37;;;;;;;51.67;21.65;;;;;;;;;;5103331;28;20075;-80
2023/03/05 03:02:04;;;;;;;56.92;21.10;;;;;;;;;;5109894;28;20072;-78
2023/03/05 03:04:30;;;;;;;52.17;20.75;;;;;;;;;;5113881;28;20044;-78
2023/03/05 03:06:57;;;;;;;53.83;21.80;;;;;;;;;;5103205;28;20075;-81
2023/03/05 03:09:24;;;;;;;53.33;20.90;;;;;;;;;;5100750;28;20067;-81
2023/03/05 03:11:51;;;;;;;51.35;21.55;;;;;;;;;;5101073;28;20047;-81
2023/03/05 03:14:19;;;;;;;53.17;20.38;;;;;;;;;;5100970;28;20067;-81
2023/03/05 03:16:46;;;;;;;55.28;23.20;;;;;;;;;;5101617;28;20099;-78
2023/03/05 03:19:12;;;;;;;56.97;21.73;;;;;;;;;;5104282;28;20086;-81
2023/03/05 03:21:39;;;;;;;54.33;22.20;;;;;;;;;;5107183;28;20044;-78
2023/03/05 03:24:06;;;;;;;55.03;21.98;;;;;;;;;;5104147;28;20050;-80
2023/03/05 03:26:33;;;;;;;53.22;20.92;;;;;;;;;;5100469;28;20048;-80
2023/03/05 03:29:00;;;;;;;49.28;21.17;;;;;;;;;;5100741;28;20055;-80
2023/03/05 03:31:27;;;;;;;52.03;20.45;;;;;;;;;;5099983;28;20040;-79
2023/03/05 03:33:54;;;;;;;50.08;20.38;;;;;;;;;;5099293;28;20131;-80
2023/03/05 03:36:21;;;;;;;51.63;21.48;;;;;;;;;;5098509;28;20530;-81
2023/03/05 03:38:47;;;;;;;52.90;20.92;;;;;;;;;;5098852;28;20067;-80
2023/03/05 03:41:14;;;;;;;52.10;20.67;;;;;;;;;;5098477;28;20048;-80
2023/03/05 03:43:41;;;;;;;51.78;20.65;;;;;;;;;;5098194;28;20132;-81
2023/03/05 03:46:08;;;;;;;51.03;19.30;;;;;;;;;;5098313;28;20094;-79
2023/03/05 03:48:36;;;;;;;48.60;20.05;;;;;;;;;;5096237;28;20048;-79
2023/03/05 03:51:05;;;;;;;51.90;19.25;;;;;;;;;;5096935;28;20521;-79
2023/03/05 03:53:31;;;;;;;49.80;19.77;;;;;;;;;;5097442;28;20562;-80
2023/03/05 03:55:58;;;;;;;54.83;19.52;;;;;;;;;;5101169;28;20044;-79
2023/03/05 03:58:25;;;;;;;47.13;19.80;;;;;;;;;;5097895;28;20060;-79
2023/03/05 04:00:52;;;;;;;46.13;19.20;;;;;;;;;;5098246;28;20058;-79
2023/03/05 04:03:18;;;;;;;56.47;23.02;;;;;;;;;;5099111;28;20048;-80
2023/03/05 04:05:48;;;;;;;45.55;19.73;;;;;;;;;;5099129;28;20055;-80
2023/03/05 04:08:15;;;;;;;52.90;18.33;;;;;;;;;;5101943;28;20047;-79
2023/03/05 04:10:52;;;;;;;51.10;19.65;;;;;;;;;;5101143;28;20108;-79
2023/03/05 04:13:19;;;;;;;46.97;18.20;;;;;;;;;;5100731;28;20055;-81
2023/03/05 04:15:45;;;;;;;45.92;19.52;;;;;;;;;;5098552;28;20048;-81
2023/03/05 04:18:12;;;;;;;47.72;18.80;;;;;;;;;;5096140;28;20048;-81
2023/03/05 04:20:39;;;;;;;46.83;19.20;;;;;;;;;;5095242;28;20075;-79
2023/03/05 04:23:07;;;;;;;52.33;18.38;;;;;;;;;;5095338;28;20075;-79
2023/03/05 04:25:33;;;;;;;52.08;20.48;;;;;;;;;;5094549;28;20111;-80
2023/03/05 04:28:00;;;;;;;51.53;21.48;;;;;;;;;;5096892;28;20050;-80
2023/03/05 04:30:27;;;;;;;48.95;18.95;;;;;;;;;;5097847;28;20491;-80
2023/03/05 04:32:53;;;;;;;50.50;19.17;;;;;;;;;;5098031;28;20079;-78
2023/03/05 04:35:20;;;;;;;51.47;20.45;;;;;;;;;;5098546;28;20074;-79
2023/03/05 04:37:47;;;;;;;48.67;19.80;;;;;;;;;;5098357;28;20050;-78
2023/03/05 04:40:16;;;;;;;50.05;19.90;;;;;;;;;;5109650;28;20047;-81
2023/03/05 04:42:43;;;;;;;42.92;18.33;;;;;;;;;;5119426;28;20043;-81
2023/03/05 04:45:11;;;;;;;51.38;20.10;;;;;;;;;;5120660;28;20040;-83
2023/03/05 04:47:38;;;;;;;52.35;19.38;;;;;;;;;;5115958;28;20051;-81
2023/03/05 04:50:06;;;;;;;49.20;18.35;;;;;;;;;;5103600;28;20127;-81
2023/03/05 04:52:33;;;;;;;47.83;20.17;;;;;;;;;;5107187;28;20075;-80
2023/03/05 04:54:59;;;;;;;46.63;19.25;;;;;;;;;;5106954;28;20039;-80
2023/03/05 04:57:27;;;;;;;48.15;18.95;;;;;;;;;;5106365;28;20067;-80
2023/03/05 04:59:54;;;;;;;46.63;18.73;;;;;;;;;;5104504;28;20044;-80
2023/03/05 05:02:21;;;;;;;51.67;19.80;;;;;;;;;;5105006;28;20084;-80
2023/03/05 05:04:47;;;;;;;44.72;17.30;;;;;;;;;;5104160;28;20052;-80
2023/03/05 05:07:14;;;;;;;47.47;18.75;;;;;;;;;;5102206;28;20082;-80
2023/03/05 05:09:41;;;;;;;44.40;19.30;;;;;;;;;;5101716;28;20127;-79
2023/03/05 05:12:09;;;;;;;49.08;17.95;;;;;;;;;;5101993;28;20442;-79
2023/03/05 05:14:37;;;;;;;47.55;18.60;;;;;;;;;;5102232;28;20052;-82
2023/03/05 05:17:04;;;;;;;44.20;19.13;;;;;;;;;;5102585;28;20135;-80
2023/03/05 05:19:31;;;;;;;48.03;19.42;;;;;;;;;;5102737;28;20048;-81
2023/03/05 05:21:58;;;;;;;41.95;18.05;;;;;;;;;;5100676;28;20071;-78
2023/03/05 05:24:24;;;;;;;46.38;18.75;;;;;;;;;;5101675;28;20510;-78
2023/03/05 05:26:53;;;;;;;46.58;19.10;;;;;;;;;;5101358;28;20352;-78
2023/03/05 05:29:20;;;;;;;49.83;20.10;;;;;;;;;;5102378;28;20487;-80
2023/03/05 05:31:48;;;;;;;42.88;17.35;;;;;;;;;;5100514;28;20050;-78
2023/03/05 05:34:15;;;;;;;44.25;18.20;;;;;;;;;;5100195;28;20082;-80
2023/03/05 05:36:42;;;;;;;46.70;19.55;;;;;;;;;;5101991;28;20469;-80
2023/03/05 05:39:09;;;;;;;44.22;18.08;;;;;;;;;;5101688;28;20044;-80
2023/03/05 05:41:36;;;;;;;47.63;19.83;;;;;;;;;;5096273;28;20101;-77
2023/03/05 05:44:03;;;;;;;44.38;17.05;;;;;;;;;;5096697;28;20044;-78
2023/03/05 05:46:29;;;;;;;48.30;18.15;;;;;;;;;;5096560;28;20054;-79
2023/03/05 05:48:57;;;;;;;45.25;18.00;;;;;;;;;;5096562;28;20051;-79
2023/03/05 05:51:24;;;;;;;46.42;18.92;;;;;;;;;;5110839;28;20075;-77
2023/03/05 05:53:51;;;;;;;45.42;17.55;;;;;;;;;;5110449;28;20040;-78
2023/03/05 05:56:19;;;;;;;46.78;18.63;;;;;;;;;;5111398;28;20051;-78
2023/03/05 05:58:47;;;;;;;45.40;18.25;;;;;;;;;;5113316;28;20078;-80
2023/03/05 06:01:16;;;;;;;41.88;18.42;;;;;;;;;;5098532;28;20108;-80
2023/03/05 06:03:43;;;;;;;46.85;18.83;;;;;;;;;;5098004;28;20411;-81
2023/03/05 06:06:13;;;;;;;45.13;17.30;;;;;;;;;;5097019;28;20090;-79
2023/03/05 06:08:40;;;;;;;48.97;18.42;;;;;;;;;;5097650;28;20058;-80
2023/03/05 06:11:07;;;;;;;42.03;18.02;;;;;;;;;;5097012;28;20575;-80
2023/03/05 06:13:34;;;;;;;39.33;16.23;;;;;;;;;;5097001;28;20108;-79
2023/03/05 06:16:02;;;;;;;47.95;17.90;;;;;;;;;;5097395;28;20050;-82
2023/03/05 06:18:29;;;;;;;41.15;17.17;;;;;;;;;;5097281;28;20138;-80
2023/03/05 06:20:56;;;;;;;41.42;17.33;;;;;;;;;;5097584;28;20048;-80
2023/03/05 06:23:25;;;;;;;40.90;16.13;;;;;;;;;;5097419;28;20040;-81
2023/03/05 06:25:52;;;;;;;40.92;16.80;;;;;;;;;;5097392;28;20139;-81
2023/03/05 06:28:19;;;;;;;45.05;17.85;;;;;;;;;;5097280;28;20463;-80
2023/03/05 06:30:46;;;;;;;44.10;17.00;;;;;;;;;;5096182;28;20076;-79
2023/03/05 06:33:12;;;;;;;43.60;17.17;;;;;;;;;;5096323;28;20138;-79
2023/03/05 06:35:39;;;;;;;43.60;16.90;;;;;;;;;;5095237;28;20054;-80
2023/03/05 06:38:07;;;;;;;43.78;16.95;;;;;;;;;;5096562;28;20075;-79
2023/03/05 06:40:35;;;;;;;47.35;18.55;;;;;;;;;;5096420;28;20044;-80
2023/03/05 06:43:02;;;;;;;40.30;16.58;;;;;;;;;;5095800;28;20070;-80
2023/03/05 06:45:28;;;;;;;52.17;19.85;;;;;;;;;;5098776;28;20105;-80
2023/03/05 06:47:55;;;;;;;48.00;18.35;;;;;;;;;;5097194;28;20052;-80
2023/03/05 06:50:21;;;;;;;48.60;19.33;;;;;;;;;;5096759;28;20073;-80
2023/03/05 06:52:49;;;;;;;42.22;15.68;;;;;;;;;;5096327;28;20062;-79
2023/03/05 06:55:16;;;;;;;40.08;16.40;;;;;;;;;;5095350;28;20051;-79
2023/03/05 06:57:44;;;;;;;48.72;18.23;;;;;;;;;;5096798;28;20139;-80
2023/03/05 07:00:12;;;;;;;41.10;17.17;;;;;;;;;;5096659;28;20048;-79
2023/03/05 07:02:39;;;;;;;38.97;16.70;;;;;;;;;;5096291;28;20048;-80
2023/03/05 07:05:07;;;;;;;43.65;16.88;;;;;;;;;;5096249;28;20067;-81
2023/03/05 07:07:34;;;;;;;43.75;17.00;;;;;;;;;;5096518;28;20099;-79
2023/03/05 07:10:00;;;;;;;46.60;18.63;;;;;;;;;;5114321;28;20047;-79
2023/03/05 07:12:27;;;;;;;45.47;17.98;;;;;;;;;;5118188;28;20039;-80
2023/03/05 07:14:55;;;;;;;42.50;18.20;;;;;;;;;;5118278;28;20043;-80
2023/03/05 07:17:21;;;;;;;43.63;17.85;;;;;;;;;;5112242;28;20047;-80
2023/03/05 07:19:48;;;;;;;46.83;17.92;;;;;;;;;;5105466;28;20417;-80
2023/03/05 07:22:15;;;;;;;44.47;16.83;;;;;;;;;;5105544;28;20044;-79
2023/03/05 07:24:41;;;;;;;43.30;17.98;;;;;;;;;;5097830;28;20070;-79
2023/03/05 07:27:08;;;;;;;44.40;17.23;;;;;;;;;;5102034;28;20039;-80
2023/03/05 07:29:34;;;;;;;42.70;17.38;;;;;;;;;;5099735;28;20135;-78
2023/03/05 07:32:03;;;;;;;49.30;17.40;;;;;;;;;;5097057;28;20072;-80
2023/03/05 07:34:30;;;;;;;47.65;18.55;;;;;;;;;;5102162;28;20048;-79
2023/03/05 07:36:56;;;;;;;44.78;16.92;;;;;;;;;;5080449;28;20087;-80
2023/03/05 07:39:23;;;;;;;43.05;17.40;;;;;;;;;;5081097;28;20128;-79
2023/03/05 07:41:50;;;;;;;42.42;16.75;;;;;;;;;;5081089;28;20091;-79
2023/03/05 07:44:17;;;;;;;44.22;16.65;;;;;;;;;;5081630;28;20059;-80
2023/03/05 07:46:44;;;;;;;44.70;17.85;;;;;;;;;;5080435;28;20048;-78
2023/03/05 07:49:12;;;;;;;45.83;18.20;;;;;;;;;;5088436;28;20044;-79
2023/03/05 07:51:40;;;;;;;44.47;18.02;;;;;;;;;;5098729;28;20097;-80
2023/03/05 07:54:07;;;;;;;43.13;17.67;;;;;;;;;;5098813;28;20059;-79
2023/03/05 07:56:35;;;;;;;46.97;18.58;;;;;;;;;;5099150;28;20080;-81
2023/03/05 07:59:05;;;;;;;44.67;18.50;;;;;;;;;;5098499;28;20084;-81
2023/03/05 08:01:33;;;;;;;41.75;16.20;;;;;;;;;;5102659;28;20105;-80
2023/03/05 08:03:59;;;;;;;45.88;17.27;;;;;;;;;;5102887;28;20093;-81
2023/03/05 08:06:27;;;;;;;44.38;17.45;;;;;;;;;;5101633;28;20107;-80
2023/03/05 08:08:54;;;;;;;44.38;17.02;;;;;;;;;;5101324;28;20072;-81
2023/03/05 08:11:21;;;;;;;41.55;17.55;;;;;;;;;;5101729;28;20143;-79
2023/03/05 08:13:47;;;;;;;49.80;18.83;;;;;;;;;;5101994;28;20079;-81
2023/03/05 08:16:16;;;;;;;44.85;17.85;;;;;;;;;;5102632;28;20123;-79
2023/03/05 08:18:43;;;;;;;45.53;17.60;;;;;;;;;;5104193;28;20059;-80
2023/03/05 08:21:16;;;;;;;45.45;18.15;;;;;;;;;;5104697;28;20131;-80
2023/03/05 08:23:44;;;;;;;38.83;16.33;;;;;;;;;;5105611;28;20060;-79
2023/03/05 08:26:13;;;;;;;45.45;17.65;;;;;;;;;;5103849;28;20067;-76
2023/03/05 08:28:39;;;;;;;43.05;16.75;;;;;;;;;;5099948;28;20135;-79
2023/03/05 08:31:09;;;;;;;46.70;18.10;;;;;;;;;;5102457;28;20131;-79
2023/03/05 08:33:36;;;;;;;47.53;18.48;;;;;;;;;;5104178;28;20098;-79
2023/03/05 08:36:03;;;;;;;45.10;18.30;;;;;;;;;;5104879;28;20126;-80
2023/03/05 08:38:30;;;;;;;42.15;16.25;;;;;;;;;;5103685;28;20197;-79
2023/03/05 08:40:58;;;;;;;47.35;17.65;;;;;;;;;;5102333;28;20079;-78
2023/03/05 08:43:24;;;;;;;44.72;17.17;;;;;;;;;;5101673;28;20087;-81
2023/03/05 08:45:52;;;;;;;40.92;15.90;;;;;;;;;;5102168;28;20044;-79
2023/03/05 08:48:19;;;;;;;47.97;18.52;;;;;;;;;;5105320;28;20759;-78
2023/03/05 08:50:46;;;;;;;45.15;18.55;;;;;;;;;;5115043;28;20051;-79
2023/03/05 08:53:12;;;;;;;47.15;17.83;;;;;;;;;;5111816;28;20464;-79
2023/03/05 08:55:39;;;;;;;43.33;16.95;;;;;;;;;;5102653;28;20076;-78
2023/03/05 08:58:07;;;;;;;44.00;16.40;;;;;;;;;;5101687;28;20463;-79
2023/03/05 09:00:34;;;;;;;41.17;16.33;;;;;;;;;;5099682;28;20072;-80
2023/03/05 09:03:01;;;;;;;43.20;16.45;;;;;;;;;;5100260;28;20491;-80
2023/03/05 09:05:27;;;;;;;45.05;17.95;;;;;;;;;;5098384;28;20125;-79
2023/03/05 09:07:54;;;;;;;45.05;16.75;;;;;;;;;;5099718;28;20122;-79
2023/03/05 09:10:21;;;;;;;44.25;17.90;;;;;;;;;;5099217;28;20051;-79
2023/03/05 09:12:48;;;;;;;39.97;15.57;;;;;;;;;;5100223;28;20056;-77
2023/03/05 09:15:16;;;;;;;42.42;16.38;;;;;;;;;;5097911;28;20406;-81
2023/03/05 09:17:43;;;;;;;41.47;17.27;;;;;;;;;;5098152;28;20080;-79
2023/03/05 09:20:12;;;;;;;41.50;17.63;;;;;;;;;;5097994;28;20044;-79
2023/03/05 09:22:40;;;;;;;42.65;18.58;;;;;;;;;;5099865;28;20044;-80
2023/03/05 09:25:08;;;;;;;48.22;20.27;;;;;;;;;;5099562;28;20044;-78
2023/03/05 09:27:35;;;;;;;49.67;19.50;;;;;;;;;;5098675;28;20068;-81
2023/03/05 09:30:02;;;;;;;51.33;19.20;;;;;;;;;;5097027;28;20090;-78
2023/03/05 09:32:30;;;;;;;43.85;16.92;;;;;;;;;;5101660;28;20117;-79
2023/03/05 09:34:57;;;;;;;43.78;19.13;;;;;;;;;;5100482;28;20126;-80
2023/03/05 09:37:23;;;;;;;42.35;19.00;;;;;;;;;;5100279;28;20048;-78
2023/03/05 09:39:50;;;;;;;41.78;17.23;;;;;;;;;;5096732;28;20483;-78
2023/03/05 09:42:45;;;;;;;41.88;18.05;;;;;;;;;;5098245;28;20127;-79
2023/03/05 09:45:20;;;;;;;44.25;17.85;;;;;;;;;;5099666;28;20048;-79
2023/03/05 09:47:55;;;;;;;44.25;17.25;;;;;;;;;;5101733;28;20044;-81
2023/03/05 09:50:44;;;;;;;42.78;17.33;;;;;;;;;;5102050;28;20582;-81
2023/03/05 09:53:18;;;;;;;46.95;17.70;;;;;;;;;;5095431;28;20048;-80
2023/03/05 09:55:47;;;;;;;47.72;18.17;;;;;;;;;;5100572;28;20044;-79
2023/03/05 09:58:17;;;;;;;46.38;18.52;;;;;;;;;;5100402;28;20056;-79
2023/03/05 10:00:46;;;;;;;43.92;18.00;;;;;;;;;;5100856;28;20111;-79
2023/03/05 10:03:22;;;;;;;46.00;16.63;;;;;;;;;;5100737;28;20050;-78
2023/03/05 10:05:58;;;;;;;44.60;15.63;;;;;;;;;;5099322;28;20048;-79
2023/03/05 10:08:30;;;;;;;49.25;19.05;;;;;;;;;;5100423;28;20103;-79
2023/03/05 10:10:59;;;;;;;54.53;19.13;;;;;;;;;;5099750;28;20046;-79
2023/03/05 10:13:29;;;;;;;46.75;17.75;;;;;;;;;;5099416;28;20609;-80
2023/03/05 10:16:06;;;;;;;45.95;17.58;;;;;;;;;;5103785;28;20130;-81
2023/03/05 10:18:40;;;;;;;42.88;16.80;;;;;;;;;;5104474;28;20105;-81
2023/03/05 10:21:13;;;;;;;42.03;17.30;;;;;;;;;;5104101;28;20054;-79
2023/03/05 10:23:58;;;;;;;41.78;15.95;;;;;;;;;;5104707;28;20068;-80
2023/03/05 10:26:41;;;;;;;43.08;15.73;;;;;;;;;;5104421;28;20044;-80
2023/03/05 10:29:23;;;;;;;42.30;17.02;;;;;;;;;;5080584;28;20127;-78
2023/03/05 10:32:03;;;;;;;44.00;17.45;;;;;;;;;;5092401;28;20079;-81
2023/03/05 10:34:55;;;;;;;45.15;16.65;;;;;;;;;;5101704;28;20045;-79
2023/03/05 10:37:42;;;;;;;46.90;18.95;;;;;;;;;;5084065;28;20147;-81
2023/03/05 10:40:18;;;;;;;42.90;17.35;;;;;;;;;;5081606;28;20084;-79
2023/03/05 10:42:51;;;;;;;44.53;17.45;;;;;;;;;;5101374;28;20047;-80
2023/03/05 10:45:21;;;;;;;42.67;17.30;;;;;;;;;;5101771;28;20126;-81
2023/03/05 10:47:52;;;;;;;49.58;17.50;;;;;;;;;;5103456;28;20474;-80
2023/03/05 10:50:22;;;;;;;43.00;16.73;;;;;;;;;;5103646;28;20055;-79
2023/03/05 10:52:55;;;;;;;45.80;17.30;;;;;;;;;;5102872;28;20048;-80
2023/03/05 10:55:22;;;;;;;42.35;17.25;;;;;;;;;;5103773;28;20072;-82
2023/03/05 10:57:50;;;;;;;44.40;17.30;;;;;;;;;;5103395;28;20077;-80
2023/03/05 11:00:20;;;;;;;40.58;16.10;;;;;;;;;;5103322;28;20079;-79
2023/03/05 11:02:58;;;;;;;39.22;17.08;;;;;;;;;;5103900;28;20079;-80
2023/03/05 11:05:43;;;;;;;37.58;16.48;;;;;;;;;;5104104;28;20067;-80
2023/03/05 11:08:34;;;;;;;41.38;18.27;;;;;;;;;;5085248;28;20044;-81
2023/03/05 11:11:18;;;;;;;;;;;;;;;;;;5086551;28;20132;-82
2023/03/05 11:13:54;;;;;;;41.90;16.42;;;;;;;;;;5100666;28;19960;-80
2023/03/05 11:16:24;;;;;;;37.30;15.13;;;;;;;;;;5105023;28;20097;-80
2023/03/05 11:19:10;;;;;;;43.25;15.52;;;;;;;;;;5101572;28;20108;-81
2023/03/05 11:21:38;;;;;;;38.72;15.45;;;;;;;;;;5101748;28;20140;-81
2023/03/05 11:24:09;;;;;;;45.42;17.52;;;;;;;;;;5100766;28;20076;-81
2023/03/05 11:26:36;;;;;;;42.92;16.77;;;;;;;;;;5099887;28;20044;-80
2023/03/05 11:29:09;;;;;;;44.50;17.58;;;;;;;;;;5100481;28;20048;-80
2023/03/05 11:31:36;;;;;;;43.05;17.05;;;;;;;;;;5101455;28;20048;-78
2023/03/05 11:34:04;;;;;;;50.42;19.60;;;;;;;;;;5101043;28;20075;-80
2023/03/05 11:36:33;;;;;;;44.00;16.42;;;;;;;;;;5102604;28;20048;-80
2023/03/05 11:39:11;;;;;;;41.08;15.85;;;;;;;;;;5116984;28;20044;-79
2023/03/05 11:41:40;;;;;;;43.78;17.05;;;;;;;;;;5132624;28;20119;-80
2023/03/05 11:44:13;;;;;;;39.45;15.25;;;;;;;;;;5118953;28;20410;-79
2023/03/05 11:46:44;;;;;;;39.20;15.30;;;;;;;;;;5104782;28;20036;-80
2023/03/05 11:49:13;;;;;;;;;;;;;;;;;;5102688;28;20104;-79
2023/03/05 11:51:43;;;;;;;39.85;15.30;;;;;;;;;;5103967;28;19974;-80
2023/03/05 11:54:19;;;;;;;37.13;15.35;;;;;;;;;;5106694;28;20143;-80
2023/03/05 11:56:46;;;;;;;38.00;16.52;;;;;;;;;;5102194;28;20475;-74
2023/03/05 11:59:17;;;;;;;38.33;16.40;;;;;;;;;;5100487;28;20054;-81
2023/03/05 12:01:49;;;;;;;35.63;14.73;;;;;;;;;;5100218;28;20052;-80
2023/03/05 12:04:17;;;;;;;40.38;16.15;;;;;;;;;;5099839;28;20048;-82
2023/03/05 12:06:46;;;;;;;33.85;14.98;;;;;;;;;;5100459;28;20055;-81
2023/03/05 12:09:23;;;;;;;38.70;14.63;;;;;;;;;;5100682;28;20129;-82
2023/03/05 12:11:56;;;;;;;37.35;15.52;;;;;;;;;;5100090;28;20040;-81
2023/03/05 12:14:26;;;;;;;35.20;14.70;;;;;;;;;;5101053;28;20127;-81
2023/03/05 12:16:57;;;;;;;34.35;14.75;;;;;;;;;;5101486;28;20087;-81
2023/03/05 12:19:34;;;;;;;36.42;13.15;;;;;;;;;;5106177;28;20131;-80
2023/03/05 12:22:03;;;;;;;33.22;13.00;;;;;;;;;;5099886;28;20059;-79
2023/03/05 12:24:38;;;;;;;36.13;14.57;;;;;;;;;;5103589;28;20091;-81
2023/03/05 12:27:10;;;;;;;34.03;14.95;;;;;;;;;;5102776;28;20048;-79
2023/03/05 12:29:44;;;;;;;35.13;14.73;;;;;;;;;;5098684;28;20075;-81
2023/03/05 12:33:02;;;;;;;35.60;14.00;;;;;;;;;;5094555;28;20075;-80
2023/03/05 12:35:37;;;;;;;29.42;12.05;;;;;;;;;;5096519;28;20052;-82
2023/03/05 12:38:18;;;;;;;30.15;13.02;;;;;;;;;;5099322;28;20054;-83
2023/03/05 12:40:46;;;;;;;33.60;12.95;;;;;;;;;;5100449;28;20107;-83
2023/03/05 12:43:31;;;;;;;37.17;14.90;;;;;;;;;;5100915;28;20044;-81
2023/03/05 12:46:23;;;;;;;32.75;13.88;;;;;;;;;;5079906;28;20127;-80
2023/03/05 12:48:49;;;;;;;38.15;16.67;;;;;;;;;;5101534;28;20060;-82
2023/03/05 12:51:31;;;;;;;36.22;16.90;;;;;;;;;;5100154;28;20046;-82
2023/03/05 12:54:24;;;;;;;44.53;18.40;;;;;;;;;;5099391;28;20129;-84
2023/03/05 12:56:54;;;;;;;47.67;19.20;;;;;;;;;;5095963;28;20462;-81
2023/03/05 12:59:24;;;;;;;50.92;24.00;;;;;;;;;;5099731;28;20447;-81
2023/03/05 13:01:55;;;;;;;48.17;21.00;;;;;;;;;;5099862;28;20066;-79
2023/03/05 13:04:24;;;;;;;;;;;;;;;;;;5098735;28;20564;-81
2023/03/05 13:07:00;;;;;;;49.53;21.42;;;;;;;;;;5099132;28;19920;-82
2023/03/05 13:09:28;;;;;;;38.55;16.60;;;;;;;;;;5099733;28;20067;-81
2023/03/05 13:11:57;;;;;;;42.17;18.27;;;;;;;;;;5098322;28;20047;-78
2023/03/05 13:14:42;;;;;;;44.80;18.10;;;;;;;;;;5092891;28;20123;-79
2023/03/05 13:17:29;;;;;;;38.50;18.42;;;;;;;;;;5098871;28;20044;-82
2023/03/05 13:19:57;;;;;;;42.10;18.48;;;;;;;;;;5085695;22;20119;-65
2023/03/05 13:22:24;;;;;;;40.28;15.93;;;;;;;;;;5039845;28;20064;-58
2023/03/05 13:25:22;;;;;;;42.45;14.48;;;;;;;;;;5051509;28;20516;-55
2023/03/05 13:27:50;;;;;;;36.58;14.48;;;;;;;;;;5054018;28;20040;-54
2023/03/05 13:30:23;;;;;;;34.20;13.55;;;;;;;;;;5071073;28;20097;-53
2023/03/05 13:32:52;;;;;;;33.38;14.32;;;;;;;;;;5065713;28;20530;-52
2023/03/05 13:35:20;;;;;;;33.42;14.27;;;;;;;;;;5068399;28;20155;-53
2023/03/05 13:37:47;;;;;;;28.00;12.65;;;;;;;;;;5070727;28;20131;-54
2023/03/05 13:40:20;;;;;;;40.60;13.63;;;;;;;;;;5071739;28;20051;-54
2023/03/05 13:42:47;;;;;;;34.65;12.48;;;;;;;;;;5064904;28;20532;-56
2023/03/05 13:45:25;;;;;;;34.65;13.75;;;;;;;;;;5068792;28;20058;-55
2023/03/05 13:47:54;;;;;;;31.98;13.48;;;;;;;;;;5072635;28;20055;-56
2023/03/05 13:50:24;;;;;;;34.60;13.48;;;;;;;;;;5068917;28;20366;-56
2023/03/05 13:52:51;;;;;;;33.15;13.25;;;;;;;;;;5073042;28;20051;-55
2023/03/05 13:55:18;;;;;;;32.42;12.80;;;;;;;;;;5079364;28;20063;-52
2023/03/05 13:57:48;;;;;;;32.40;13.52;;;;;;;;;;5077821;28;20423;-54
2023/03/05 14:00:35;;;;;;;33.75;13.95;;;;;;;;;;5093195;28;20527;-53
2023/03/05 14:03:10;;;;;;;26.67;11.85;;;;;;;;;;5084621;28;20383;-55
2023/03/05 14:05:37;;;;;;;32.92;14.25;;;;;;;;;;5072988;28;20045;-53
2023/03/05 14:08:04;;;;;;;33.92;13.23;;;;;;;;;;5073142;28;20456;-54
2023/03/05 14:10:34;;;;;;;32.33;13.13;;;;;;;;;;5073200;28;20563;-54
2023/03/05 14:13:03;;;;;;;33.75;13.60;;;;;;;;;;5073144;28;20049;-54
2023/03/05 14:15:33;;;;;;;33.08;14.35;;;;;;;;;;5072618;28;20044;-55
2023/03/05 14:18:17;;;;;;;35.55;13.50;;;;;;;;;;5072798;28;20059;-54
2023/03/05 14:21:02;;;;;;;32.60;13.75;;;;;;;;;;5072822;28;20525;-54
2023/03/05 14:23:38;;;;;;;32.45;14.25;;;;;;;;;;5073220;28;20048;-55
2023/03/05 14:26:20;;;;;;;30.50;13.30;;;;;;;;;;5072619;28;20045;-55
2023/03/05 14:28:51;;;;;;;35.17;12.93;;;;;;;;;;5072785;28;20123;-52
2023/03/05 14:31:20;;;;;;;31.83;12.57;;;;;;;;;;5072102;28;20136;-55
2023/03/05 14:33:49;;;;;;;33.67;12.95;;;;;;;;;;5072657;28;20044;-54